sensor_id;sensor_type;location;lat;lon;timestamp;P1;durP1;ratioP1;P2;durP2;ratioP2
9106;SDS011;4589;48.690;8.952;2023-12-28T00:02:04;6.93;;;2.90;;
9106;SDS011;4589;48.690;8.952;2023-12-28T00:04:30;3.47;;;3.17;;
9106;SDS011;4589;48.690;8.952;2023-12-28T00:06:55;3.63;;;2.80;;
9106;SDS011;4589;48.690;8.952;2023-12-28T00:09:21;3.10;;;2.77;;
9106;SDS011;4589;48.690;8.952;2023-12-28T00:11:47;3.53;;;2.57;;
9106;SDS011;4589;48.690;8.952;2023-12-28T00:14:12;4.07;;;2.80;;
9106;SDS011;4589;48.690;8.952;2023-12-28T00:16:38;4.17;;;2.37;;
9106;SDS011;4589;48.690;8.952;2023-12-28T00:19:04;3.83;;;3.10;;
9106;SDS011;4589;48.690;8.952;2023-12-28T00:21:30;3.13;;;2.50;;
9106;SDS011;4589;48.690;8.952;2023-12-28T00:23:55;7.50;;;3.17;;
9106;SDS011;4589;48.690;8.952;2023-12-28T00:26:21;3.23;;;2.73;;
9106;SDS011;4589;48.690;8.952;2023-12-28T00:28:47;3.73;;;2.43;;
9106;SDS011;4589;48.690;8.952;2023-12-28T00:31:13;2.73;;;2.53;;
9106;SDS011;4589;48.690;8.952;2023-12-28T00:33:39;3.53;;;2.40;;
9106;SDS011;4589;48.690;8.952;2023-12-28T00:36:04;3.07;;;2.57;;
9106;SDS011;4589;48.690;8.952;2023-12-28T00:38:30;3.30;;;2.63;;
9106;SDS011;4589;48.690;8.952;2023-12-28T00:40:56;3.27;;;2.80;;
9106;SDS011;4589;48.690;8.952;2023-12-28T00:43:23;6.50;;;3.50;;
9106;SDS011;4589;48.690;8.952;2023-12-28T00:45:49;2.70;;;2.20;;
9106;SDS011;4589;48.690;8.952;2023-12-28T00:48:14;2.67;;;2.40;;
9106;SDS011;4589;48.690;8.952;2023-12-28T00:50:40;2.77;;;2.53;;
9106;SDS011;4589;48.690;8.952;2023-12-28T00:53:05;2.40;;;2.07;;
9106;SDS011;4589;48.690;8.952;2023-12-28T00:55:31;3.87;;;2.40;;
9106;SDS011;4589;48.690;8.952;2023-12-28T00:57:57;6.17;;;2.80;;
9106;SDS011;4589;48.690;8.952;2023-12-28T01:00:22;3.90;;;2.63;;
9106;SDS011;4589;48.690;8.952;2023-12-28T01:02:48;4.17;;;2.57;;
9106;SDS011;4589;48.690;8.952;2023-12-28T01:05:14;5.37;;;2.53;;
9106;SDS011;4589;48.690;8.952;2023-12-28T01:07:39;3.70;;;2.17;;
9106;SDS011;4589;48.690;8.952;2023-12-28T01:10:05;2.67;;;2.20;;
9106;SDS011;4589;48.690;8.952;2023-12-28T01:12:31;2.40;;;2.20;;
9106;SDS011;4589;48.690;8.952;2023-12-28T01:14:57;3.70;;;2.60;;
9106;SDS011;4589;48.690;8.952;2023-12-28T01:17:22;3.13;;;2.47;;
9106;SDS011;4589;48.690;8.952;2023-12-28T01:19:48;3.07;;;2.70;;
9106;SDS011;4589;48.690;8.952;2023-12-28T01:22:14;2.40;;;2.20;;
9106;SDS011;4589;48.690;8.952;2023-12-28T01:24:39;3.70;;;2.40;;
9106;SDS011;4589;48.690;8.952;2023-12-28T01:27:05;3.17;;;2.87;;
9106;SDS011;4589;48.690;8.952;2023-12-28T01:29:30;2.77;;;2.30;;
9106;SDS011;4589;48.690;8.952;2023-12-28T01:31:57;3.37;;;2.20;;
9106;SDS011;4589;48.690;8.952;2023-12-28T01:34:23;3.90;;;2.20;;
9106;SDS011;4589;48.690;8.952;2023-12-28T01:36:48;2.33;;;1.77;;
9106;SDS011;4589;48.690;8.952;2023-12-28T01:39:14;4.07;;;2.27;;
9106;SDS011;4589;48.690;8.952;2023-12-28T01:41:43;2.93;;;2.33;;
9106;SDS011;4589;48.690;8.952;2023-12-28T01:44:09;2.63;;;2.40;;
9106;SDS011;4589;48.690;8.952;2023-12-28T01:46:34;3.17;;;1.80;;
9106;SDS011;4589;48.690;8.952;2023-12-28T01:49:00;3.17;;;2.30;;
9106;SDS011;4589;48.690;8.952;2023-12-28T01:51:26;3.30;;;2.37;;
9106;SDS011;4589;48.690;8.952;2023-12-28T01:53:52;3.30;;;2.27;;
9106;SDS011;4589;48.690;8.952;2023-12-28T01:56:19;2.53;;;2.10;;
9106;SDS011;4589;48.690;8.952;2023-12-28T01:58:46;2.87;;;2.60;;
9106;SDS011;4589;48.690;8.952;2023-12-28T02:01:12;3.60;;;2.70;;
9106;SDS011;4589;48.690;8.952;2023-12-28T02:03:38;2.00;;;1.80;;
9106;SDS011;4589;48.690;8.952;2023-12-28T02:06:04;2.47;;;2.20;;
9106;SDS011;4589;48.690;8.952;2023-12-28T02:08:32;2.83;;;1.83;;
9106;SDS011;4589;48.690;8.952;2023-12-28T02:10:57;1.97;;;1.80;;
9106;SDS011;4589;48.690;8.952;2023-12-28T02:13:24;3.10;;;1.80;;
9106;SDS011;4589;48.690;8.952;2023-12-28T02:15:51;2.63;;;1.80;;
9106;SDS011;4589;48.690;8.952;2023-12-28T02:18:23;2.90;;;2.60;;
9106;SDS011;4589;48.690;8.952;2023-12-28T02:20:54;2.70;;;2.30;;
9106;SDS011;4589;48.690;8.952;2023-12-28T02:23:22;4.67;;;2.20;;
9106;SDS011;4589;48.690;8.952;2023-12-28T02:25:48;2.20;;;1.60;;
9106;SDS011;4589;48.690;8.952;2023-12-28T02:28:13;2.10;;;1.90;;
9106;SDS011;4589;48.690;8.952;2023-12-28T02:30:39;6.30;;;2.20;;
9106;SDS011;4589;48.690;8.952;2023-12-28T02:35:55;3.43;;;2.30;;
9106;SDS011;4589;48.690;8.952;2023-12-28T02:38:24;1.90;;;1.67;;
9106;SDS011;4589;48.690;8.952;2023-12-28T02:40:50;2.40;;;2.13;;
9106;SDS011;4589;48.690;8.952;2023-12-28T02:43:17;3.50;;;2.07;;
9106;SDS011;4589;48.690;8.952;2023-12-28T02:45:42;2.70;;;2.10;;
9106;SDS011;4589;48.690;8.952;2023-12-28T02:48:08;1.80;;;1.70;;
9106;SDS011;4589;48.690;8.952;2023-12-28T02:50:34;2.80;;;1.87;;
9106;SDS011;4589;48.690;8.952;2023-12-28T02:53:00;1.70;;;1.60;;
9106;SDS011;4589;48.690;8.952;2023-12-28T02:55:27;2.63;;;1.90;;
9106;SDS011;4589;48.690;8.952;2023-12-28T02:57:53;2.70;;;2.00;;
9106;SDS011;4589;48.690;8.952;2023-12-28T03:00:20;2.27;;;2.00;;
9106;SDS011;4589;48.690;8.952;2023-12-28T03:02:46;3.60;;;2.50;;
9106;SDS011;4589;48.690;8.952;2023-12-28T03:05:11;4.03;;;1.93;;
9106;SDS011;4589;48.690;8.952;2023-12-28T03:07:37;1.73;;;1.63;;
9106;SDS011;4589;48.690;8.952;2023-12-28T03:10:05;2.30;;;2.00;;
9106;SDS011;4589;48.690;8.952;2023-12-28T03:12:32;2.53;;;1.70;;
9106;SDS011;4589;48.690;8.952;2023-12-28T03:14:57;2.30;;;1.70;;
9106;SDS011;4589;48.690;8.952;2023-12-28T03:17:23;2.93;;;1.70;;
9106;SDS011;4589;48.690;8.952;2023-12-28T03:19:49;2.40;;;1.87;;
9106;SDS011;4589;48.690;8.952;2023-12-28T03:22:14;2.30;;;1.90;;
9106;SDS011;4589;48.690;8.952;2023-12-28T03:24:40;4.33;;;1.80;;
9106;SDS011;4589;48.690;8.952;2023-12-28T03:27:06;2.27;;;1.80;;
9106;SDS011;4589;48.690;8.952;2023-12-28T03:29:32;3.13;;;2.30;;
9106;SDS011;4589;48.690;8.952;2023-12-28T03:31:58;2.40;;;1.70;;
9106;SDS011;4589;48.690;8.952;2023-12-28T03:34:24;1.97;;;1.77;;
9106;SDS011;4589;48.690;8.952;2023-12-28T03:36:51;1.97;;;1.80;;
9106;SDS011;4589;48.690;8.952;2023-12-28T03:39:17;2.17;;;1.80;;
9106;SDS011;4589;48.690;8.952;2023-12-28T03:41:43;2.20;;;1.73;;
9106;SDS011;4589;48.690;8.952;2023-12-28T03:44:09;2.00;;;1.80;;
9106;SDS011;4589;48.690;8.952;2023-12-28T03:46:34;3.20;;;1.93;;
9106;SDS011;4589;48.690;8.952;2023-12-28T03:49:00;2.30;;;1.63;;
9106;SDS011;4589;48.690;8.952;2023-12-28T03:51:25;6.47;;;1.73;;
9106;SDS011;4589;48.690;8.952;2023-12-28T03:53:51;2.20;;;2.00;;
9106;SDS011;4589;48.690;8.952;2023-12-28T03:56:20;2.07;;;1.80;;
9106;SDS011;4589;48.690;8.952;2023-12-28T03:58:47;2.10;;;1.90;;
9106;SDS011;4589;48.690;8.952;2023-12-28T04:01:12;4.97;;;2.00;;
9106;SDS011;4589;48.690;8.952;2023-12-28T04:03:38;2.20;;;1.73;;
9106;SDS011;4589;48.690;8.952;2023-12-28T04:06:04;2.50;;;2.17;;
9106;SDS011;4589;48.690;8.952;2023-12-28T04:08:30;2.10;;;1.87;;
9106;SDS011;4589;48.690;8.952;2023-12-28T04:10:55;1.90;;;1.80;;
9106;SDS011;4589;48.690;8.952;2023-12-28T04:13:21;2.13;;;1.73;;
9106;SDS011;4589;48.690;8.952;2023-12-28T04:15:47;3.03;;;2.10;;
9106;SDS011;4589;48.690;8.952;2023-12-28T04:18:12;2.10;;;1.87;;
9106;SDS011;4589;48.690;8.952;2023-12-28T04:20:38;2.30;;;1.80;;
9106;SDS011;4589;48.690;8.952;2023-12-28T04:23:04;2.20;;;1.80;;
9106;SDS011;4589;48.690;8.952;2023-12-28T04:25:29;2.63;;;1.70;;
9106;SDS011;4589;48.690;8.952;2023-12-28T04:27:55;2.17;;;1.97;;
9106;SDS011;4589;48.690;8.952;2023-12-28T04:30:20;3.00;;;2.27;;
9106;SDS011;4589;48.690;8.952;2023-12-28T04:32:46;2.40;;;1.90;;
9106;SDS011;4589;48.690;8.952;2023-12-28T04:35:12;2.30;;;1.87;;
9106;SDS011;4589;48.690;8.952;2023-12-28T04:37:37;2.17;;;1.90;;
9106;SDS011;4589;48.690;8.952;2023-12-28T04:40:03;1.77;;;1.63;;
9106;SDS011;4589;48.690;8.952;2023-12-28T04:42:29;3.30;;;1.77;;
9106;SDS011;4589;48.690;8.952;2023-12-28T04:44:54;6.10;;;1.90;;
9106;SDS011;4589;48.690;8.952;2023-12-28T04:47:20;3.20;;;1.87;;
9106;SDS011;4589;48.690;8.952;2023-12-28T04:49:46;2.70;;;2.00;;
9106;SDS011;4589;48.690;8.952;2023-12-28T04:52:11;4.53;;;1.73;;
9106;SDS011;4589;48.690;8.952;2023-12-28T04:54:39;2.20;;;2.00;;
9106;SDS011;4589;48.690;8.952;2023-12-28T04:57:05;2.53;;;1.67;;
9106;SDS011;4589;48.690;8.952;2023-12-28T04:59:33;2.23;;;1.90;;
9106;SDS011;4589;48.690;8.952;2023-12-28T05:02:05;2.10;;;1.80;;
9106;SDS011;4589;48.690;8.952;2023-12-28T05:04:30;1.90;;;1.70;;
9106;SDS011;4589;48.690;8.952;2023-12-28T05:06:56;2.40;;;1.90;;
9106;SDS011;4589;48.690;8.952;2023-12-28T05:09:22;4.00;;;2.17;;
9106;SDS011;4589;48.690;8.952;2023-12-28T05:11:47;3.03;;;2.27;;
9106;SDS011;4589;48.690;8.952;2023-12-28T05:14:13;2.23;;;1.80;;
9106;SDS011;4589;48.690;8.952;2023-12-28T05:16:38;3.20;;;2.17;;
9106;SDS011;4589;48.690;8.952;2023-12-28T05:19:04;3.87;;;1.77;;
9106;SDS011;4589;48.690;8.952;2023-12-28T05:21:30;2.40;;;2.03;;
9106;SDS011;4589;48.690;8.952;2023-12-28T05:23:55;2.40;;;1.87;;
9106;SDS011;4589;48.690;8.952;2023-12-28T05:26:21;2.60;;;1.80;;
9106;SDS011;4589;48.690;8.952;2023-12-28T05:28:48;2.17;;;1.97;;
9106;SDS011;4589;48.690;8.952;2023-12-28T05:31:13;2.00;;;1.80;;
9106;SDS011;4589;48.690;8.952;2023-12-28T05:33:39;2.20;;;1.93;;
9106;SDS011;4589;48.690;8.952;2023-12-28T05:36:05;1.63;;;1.53;;
9106;SDS011;4589;48.690;8.952;2023-12-28T05:38:31;1.80;;;1.70;;
9106;SDS011;4589;48.690;8.952;2023-12-28T05:40:57;3.13;;;1.70;;
9106;SDS011;4589;48.690;8.952;2023-12-28T05:43:22;1.77;;;1.63;;
9106;SDS011;4589;48.690;8.952;2023-12-28T05:45:48;3.47;;;1.60;;
9106;SDS011;4589;48.690;8.952;2023-12-28T05:48:14;5.40;;;1.87;;
9106;SDS011;4589;48.690;8.952;2023-12-28T05:50:39;2.13;;;1.40;;
9106;SDS011;4589;48.690;8.952;2023-12-28T05:53:05;2.37;;;1.97;;
9106;SDS011;4589;48.690;8.952;2023-12-28T05:55:31;3.10;;;2.07;;
9106;SDS011;4589;48.690;8.952;2023-12-28T05:57:56;2.00;;;1.80;;
9106;SDS011;4589;48.690;8.952;2023-12-28T06:00:22;3.60;;;2.07;;
9106;SDS011;4589;48.690;8.952;2023-12-28T06:02:48;2.50;;;1.57;;
9106;SDS011;4589;48.690;8.952;2023-12-28T06:05:17;2.47;;;1.80;;
9106;SDS011;4589;48.690;8.952;2023-12-28T06:07:43;1.90;;;1.70;;
9106;SDS011;4589;48.690;8.952;2023-12-28T06:10:09;4.57;;;2.10;;
9106;SDS011;4589;48.690;8.952;2023-12-28T06:12:34;3.63;;;1.97;;
9106;SDS011;4589;48.690;8.952;2023-12-28T06:15:01;3.53;;;1.73;;
9106;SDS011;4589;48.690;8.952;2023-12-28T06:17:28;2.23;;;2.00;;
9106;SDS011;4589;48.690;8.952;2023-12-28T06:19:53;3.90;;;2.07;;
9106;SDS011;4589;48.690;8.952;2023-12-28T06:22:19;2.97;;;1.80;;
9106;SDS011;4589;48.690;8.952;2023-12-28T06:24:44;2.20;;;2.00;;
9106;SDS011;4589;48.690;8.952;2023-12-28T06:27:10;2.63;;;1.90;;
9106;SDS011;4589;48.690;8.952;2023-12-28T06:29:36;2.80;;;2.40;;
9106;SDS011;4589;48.690;8.952;2023-12-28T06:32:01;1.80;;;1.70;;
9106;SDS011;4589;48.690;8.952;2023-12-28T06:34:27;2.10;;;1.83;;
9106;SDS011;4589;48.690;8.952;2023-12-28T06:36:53;2.30;;;2.10;;
9106;SDS011;4589;48.690;8.952;2023-12-28T06:39:18;1.90;;;1.63;;
9106;SDS011;4589;48.690;8.952;2023-12-28T06:41:47;2.00;;;1.80;;
9106;SDS011;4589;48.690;8.952;2023-12-28T06:44:13;3.80;;;2.10;;
9106;SDS011;4589;48.690;8.952;2023-12-28T06:46:39;2.30;;;2.10;;
9106;SDS011;4589;48.690;8.952;2023-12-28T06:49:05;2.13;;;1.93;;
9106;SDS011;4589;48.690;8.952;2023-12-28T06:51:31;2.27;;;2.00;;
9106;SDS011;4589;48.690;8.952;2023-12-28T06:53:57;2.53;;;2.00;;
9106;SDS011;4589;48.690;8.952;2023-12-28T06:56:24;1.90;;;1.70;;
9106;SDS011;4589;48.690;8.952;2023-12-28T06:58:49;2.87;;;2.30;;
9106;SDS011;4589;48.690;8.952;2023-12-28T07:01:15;2.47;;;1.70;;
9106;SDS011;4589;48.690;8.952;2023-12-28T07:03:41;2.43;;;2.20;;
9106;SDS011;4589;48.690;8.952;2023-12-28T07:06:07;2.43;;;2.20;;
9106;SDS011;4589;48.690;8.952;2023-12-28T07:08:33;2.70;;;2.00;;
9106;SDS011;4589;48.690;8.952;2023-12-28T07:10:59;3.43;;;2.10;;
9106;SDS011;4589;48.690;8.952;2023-12-28T07:13:24;3.40;;;2.00;;
9106;SDS011;4589;48.690;8.952;2023-12-28T07:15:50;3.00;;;2.10;;
9106;SDS011;4589;48.690;8.952;2023-12-28T07:18:16;1.97;;;1.73;;
9106;SDS011;4589;48.690;8.952;2023-12-28T07:20:42;2.70;;;1.93;;
9106;SDS011;4589;48.690;8.952;2023-12-28T07:23:07;6.43;;;2.07;;
9106;SDS011;4589;48.690;8.952;2023-12-28T07:25:34;2.77;;;1.97;;
9106;SDS011;4589;48.690;8.952;2023-12-28T07:27:59;2.10;;;1.87;;
9106;SDS011;4589;48.690;8.952;2023-12-28T07:30:25;1.93;;;1.73;;
9106;SDS011;4589;48.690;8.952;2023-12-28T07:32:50;2.47;;;1.93;;
9106;SDS011;4589;48.690;8.952;2023-12-28T07:35:17;2.07;;;1.73;;
9106;SDS011;4589;48.690;8.952;2023-12-28T07:37:43;3.87;;;1.77;;
9106;SDS011;4589;48.690;8.952;2023-12-28T07:40:11;2.20;;;1.80;;
9106;SDS011;4589;48.690;8.952;2023-12-28T07:42:37;3.30;;;1.67;;
9106;SDS011;4589;48.690;8.952;2023-12-28T07:45:03;2.07;;;1.90;;
9106;SDS011;4589;48.690;8.952;2023-12-28T07:47:29;3.60;;;2.50;;
9106;SDS011;4589;48.690;8.952;2023-12-28T07:49:54;2.37;;;1.77;;
9106;SDS011;4589;48.690;8.952;2023-12-28T07:52:20;2.20;;;2.00;;
9106;SDS011;4589;48.690;8.952;2023-12-28T07:54:46;3.27;;;2.07;;
9106;SDS011;4589;48.690;8.952;2023-12-28T07:57:11;1.90;;;1.80;;
9106;SDS011;4589;48.690;8.952;2023-12-28T07:59:37;2.07;;;1.63;;
9106;SDS011;4589;48.690;8.952;2023-12-28T08:02:03;2.30;;;1.73;;
9106;SDS011;4589;48.690;8.952;2023-12-28T08:04:28;2.30;;;1.97;;
9106;SDS011;4589;48.690;8.952;2023-12-28T08:06:54;3.57;;;1.97;;
9106;SDS011;4589;48.690;8.952;2023-12-28T08:09:19;2.90;;;2.23;;
9106;SDS011;4589;48.690;8.952;2023-12-28T08:11:45;10.03;;;1.83;;
9106;SDS011;4589;48.690;8.952;2023-12-28T08:14:10;3.23;;;2.30;;
9106;SDS011;4589;48.690;8.952;2023-12-28T08:16:36;1.70;;;1.60;;
9106;SDS011;4589;48.690;8.952;2023-12-28T08:19:02;3.20;;;2.23;;
9106;SDS011;4589;48.690;8.952;2023-12-28T08:21:27;3.47;;;2.20;;
9106;SDS011;4589;48.690;8.952;2023-12-28T08:23:53;2.20;;;2.00;;
9106;SDS011;4589;48.690;8.952;2023-12-28T08:26:19;3.30;;;2.10;;
9106;SDS011;4589;48.690;8.952;2023-12-28T08:28:44;4.43;;;2.23;;
9106;SDS011;4589;48.690;8.952;2023-12-28T08:31:10;4.17;;;2.10;;
9106;SDS011;4589;48.690;8.952;2023-12-28T08:33:36;1.77;;;1.50;;
9106;SDS011;4589;48.690;8.952;2023-12-28T08:36:05;7.10;;;1.60;;
9106;SDS011;4589;48.690;8.952;2023-12-28T08:38:31;1.93;;;1.70;;
9106;SDS011;4589;48.690;8.952;2023-12-28T08:40:57;2.50;;;2.20;;
9106;SDS011;4589;48.690;8.952;2023-12-28T08:43:22;2.07;;;1.57;;
9106;SDS011;4589;48.690;8.952;2023-12-28T08:45:48;2.43;;;1.83;;
9106;SDS011;4589;48.690;8.952;2023-12-28T08:48:13;2.53;;;1.87;;
9106;SDS011;4589;48.690;8.952;2023-12-28T08:50:39;1.70;;;1.50;;
9106;SDS011;4589;48.690;8.952;2023-12-28T08:53:04;2.50;;;1.60;;
9106;SDS011;4589;48.690;8.952;2023-12-28T08:55:30;4.67;;;1.90;;
9106;SDS011;4589;48.690;8.952;2023-12-28T08:57:56;1.70;;;1.60;;
9106;SDS011;4589;48.690;8.952;2023-12-28T09:00:21;4.00;;;1.50;;
9106;SDS011;4589;48.690;8.952;2023-12-28T09:02:47;2.20;;;2.00;;
9106;SDS011;4589;48.690;8.952;2023-12-28T09:05:12;2.20;;;2.00;;
9106;SDS011;4589;48.690;8.952;2023-12-28T09:07:38;4.17;;;2.17;;
9106;SDS011;4589;48.690;8.952;2023-12-28T09:10:11;4.53;;;2.00;;
9106;SDS011;4589;48.690;8.952;2023-12-28T09:12:37;1.90;;;1.70;;
9106;SDS011;4589;48.690;8.952;2023-12-28T09:15:06;1.90;;;1.60;;
9106;SDS011;4589;48.690;8.952;2023-12-28T09:17:32;3.57;;;1.90;;
9106;SDS011;4589;48.690;8.952;2023-12-28T09:19:58;4.60;;;1.80;;
9106;SDS011;4589;48.690;8.952;2023-12-28T09:22:24;3.60;;;2.20;;
9106;SDS011;4589;48.690;8.952;2023-12-28T09:24:50;3.60;;;2.67;;
9106;SDS011;4589;48.690;8.952;2023-12-28T09:27:16;3.57;;;2.40;;
9106;SDS011;4589;48.690;8.952;2023-12-28T09:29:41;5.90;;;2.23;;
9106;SDS011;4589;48.690;8.952;2023-12-28T09:32:07;4.10;;;2.57;;
9106;SDS011;4589;48.690;8.952;2023-12-28T09:34:33;2.90;;;1.90;;
9106;SDS011;4589;48.690;8.952;2023-12-28T09:36:58;4.80;;;2.20;;
9106;SDS011;4589;48.690;8.952;2023-12-28T09:39:24;3.70;;;2.30;;
9106;SDS011;4589;48.690;8.952;2023-12-28T09:41:54;3.13;;;2.00;;
9106;SDS011;4589;48.690;8.952;2023-12-28T09:44:24;3.60;;;2.20;;
9106;SDS011;4589;48.690;8.952;2023-12-28T09:46:50;3.03;;;2.20;;
9106;SDS011;4589;48.690;8.952;2023-12-28T09:49:18;2.50;;;2.10;;
9106;SDS011;4589;48.690;8.952;2023-12-28T09:51:46;3.23;;;2.27;;
9106;SDS011;4589;48.690;8.952;2023-12-28T09:54:12;3.87;;;2.07;;
9106;SDS011;4589;48.690;8.952;2023-12-28T09:56:38;2.20;;;2.00;;
9106;SDS011;4589;48.690;8.952;2023-12-28T09:59:06;2.30;;;2.10;;
9106;SDS011;4589;48.690;8.952;2023-12-28T10:01:32;3.80;;;2.17;;
9106;SDS011;4589;48.690;8.952;2023-12-28T10:03:59;2.13;;;1.97;;
9106;SDS011;4589;48.690;8.952;2023-12-28T10:06:25;3.37;;;2.03;;
9106;SDS011;4589;48.690;8.952;2023-12-28T10:08:51;3.87;;;1.80;;
9106;SDS011;4589;48.690;8.952;2023-12-28T10:11:17;2.90;;;1.90;;
9106;SDS011;4589;48.690;8.952;2023-12-28T10:13:44;1.93;;;1.73;;
9106;SDS011;4589;48.690;8.952;2023-12-28T10:16:10;3.60;;;1.73;;
9106;SDS011;4589;48.690;8.952;2023-12-28T10:18:41;2.70;;;1.63;;
9106;SDS011;4589;48.690;8.952;2023-12-28T10:21:07;2.50;;;1.77;;
9106;SDS011;4589;48.690;8.952;2023-12-28T10:23:33;2.57;;;1.80;;
9106;SDS011;4589;48.690;8.952;2023-12-28T10:25:59;2.80;;;1.73;;
9106;SDS011;4589;48.690;8.952;2023-12-28T10:28:24;1.40;;;1.23;;
9106;SDS011;4589;48.690;8.952;2023-12-28T10:30:54;2.73;;;1.80;;
9106;SDS011;4589;48.690;8.952;2023-12-28T10:33:21;3.37;;;2.20;;
9106;SDS011;4589;48.690;8.952;2023-12-28T10:35:47;2.00;;;1.80;;
9106;SDS011;4589;48.690;8.952;2023-12-28T10:38:16;2.27;;;1.50;;
9106;SDS011;4589;48.690;8.952;2023-12-28T10:40:42;2.37;;;1.70;;
9106;SDS011;4589;48.690;8.952;2023-12-28T10:43:11;1.93;;;1.60;;
9106;SDS011;4589;48.690;8.952;2023-12-28T10:45:40;1.80;;;1.47;;
9106;SDS011;4589;48.690;8.952;2023-12-28T10:48:09;2.87;;;1.70;;
9106;SDS011;4589;48.690;8.952;2023-12-28T10:50:43;2.67;;;1.70;;
9106;SDS011;4589;48.690;8.952;2023-12-28T10:58:48;2.30;;;1.63;;
9106;SDS011;4589;48.690;8.952;2023-12-28T11:01:16;3.10;;;1.83;;
9106;SDS011;4589;48.690;8.952;2023-12-28T11:03:50;2.23;;;1.70;;
9106;SDS011;4589;48.690;8.952;2023-12-28T11:06:23;4.30;;;1.70;;
9106;SDS011;4589;48.690;8.952;2023-12-28T11:08:52;1.93;;;1.50;;
9106;SDS011;4589;48.690;8.952;2023-12-28T11:11:20;2.07;;;1.70;;
9106;SDS011;4589;48.690;8.952;2023-12-28T11:13:47;2.43;;;1.63;;
9106;SDS011;4589;48.690;8.952;2023-12-28T11:16:15;1.80;;;1.50;;
9106;SDS011;4589;48.690;8.952;2023-12-28T11:18:41;1.60;;;1.50;;
9106;SDS011;4589;48.690;8.952;2023-12-28T11:21:08;1.90;;;1.63;;
9106;SDS011;4589;48.690;8.952;2023-12-28T11:23:34;2.10;;;1.77;;
9106;SDS011;4589;48.690;8.952;2023-12-28T11:26:00;2.33;;;2.03;;
9106;SDS011;4589;48.690;8.952;2023-12-28T11:28:25;1.63;;;1.53;;
9106;SDS011;4589;48.690;8.952;2023-12-28T11:30:52;1.80;;;1.70;;
9106;SDS011;4589;48.690;8.952;2023-12-28T11:33:17;1.77;;;1.57;;
9106;SDS011;4589;48.690;8.952;2023-12-28T11:35:44;5.77;;;1.87;;
9106;SDS011;4589;48.690;8.952;2023-12-28T11:38:12;2.80;;;1.80;;
9106;SDS011;4589;48.690;8.952;2023-12-28T11:40:42;2.00;;;1.80;;
9106;SDS011;4589;48.690;8.952;2023-12-28T11:43:18;2.57;;;1.80;;
9106;SDS011;4589;48.690;8.952;2023-12-28T11:45:49;3.83;;;1.80;;
9106;SDS011;4589;48.690;8.952;2023-12-28T11:48:23;3.00;;;2.17;;
9106;SDS011;4589;48.690;8.952;2023-12-28T11:50:54;2.27;;;2.00;;
9106;SDS011;4589;48.690;8.952;2023-12-28T11:53:21;2.23;;;1.90;;
9106;SDS011;4589;48.690;8.952;2023-12-28T11:55:47;3.00;;;2.20;;
9106;SDS011;4589;48.690;8.952;2023-12-28T11:58:12;2.70;;;1.93;;
9106;SDS011;4589;48.690;8.952;2023-12-28T12:00:39;2.30;;;1.90;;
9106;SDS011;4589;48.690;8.952;2023-12-28T12:03:05;4.03;;;1.93;;
9106;SDS011;4589;48.690;8.952;2023-12-28T12:05:31;2.13;;;1.63;;
9106;SDS011;4589;48.690;8.952;2023-12-28T12:07:57;3.60;;;2.27;;
9106;SDS011;4589;48.690;8.952;2023-12-28T12:10:22;2.67;;;1.90;;
9106;SDS011;4589;48.690;8.952;2023-12-28T12:12:48;2.20;;;2.00;;
9106;SDS011;4589;48.690;8.952;2023-12-28T12:15:17;2.90;;;2.40;;
9106;SDS011;4589;48.690;8.952;2023-12-28T12:17:43;2.07;;;1.90;;
9106;SDS011;4589;48.690;8.952;2023-12-28T12:20:09;4.07;;;2.43;;
9106;SDS011;4589;48.690;8.952;2023-12-28T12:22:35;3.83;;;2.70;;
9106;SDS011;4589;48.690;8.952;2023-12-28T12:25:02;2.10;;;1.90;;
9106;SDS011;4589;48.690;8.952;2023-12-28T12:27:30;5.27;;;1.97;;
9106;SDS011;4589;48.690;8.952;2023-12-28T12:29:56;2.30;;;2.10;;
9106;SDS011;4589;48.690;8.952;2023-12-28T12:32:21;2.20;;;2.00;;
9106;SDS011;4589;48.690;8.952;2023-12-28T12:34:47;4.13;;;2.20;;
9106;SDS011;4589;48.690;8.952;2023-12-28T12:37:13;3.90;;;2.83;;
9106;SDS011;4589;48.690;8.952;2023-12-28T12:39:39;2.87;;;2.53;;
9106;SDS011;4589;48.690;8.952;2023-12-28T12:42:05;2.50;;;2.10;;
9106;SDS011;4589;48.690;8.952;2023-12-28T12:44:31;3.73;;;2.70;;
9106;SDS011;4589;48.690;8.952;2023-12-28T12:46:58;3.73;;;2.83;;
9106;SDS011;4589;48.690;8.952;2023-12-28T12:49:24;3.20;;;2.77;;
9106;SDS011;4589;48.690;8.952;2023-12-28T12:51:50;4.13;;;2.30;;
9106;SDS011;4589;48.690;8.952;2023-12-28T12:54:16;4.23;;;2.50;;
9106;SDS011;4589;48.690;8.952;2023-12-28T12:56:45;2.50;;;2.10;;
9106;SDS011;4589;48.690;8.952;2023-12-28T12:59:11;2.27;;;1.87;;
9106;SDS011;4589;48.690;8.952;2023-12-28T13:01:42;2.43;;;1.67;;
9106;SDS011;4589;48.690;8.952;2023-12-28T13:04:08;3.00;;;2.17;;
9106;SDS011;4589;48.690;8.952;2023-12-28T13:06:34;2.43;;;2.07;;
9106;SDS011;4589;48.690;8.952;2023-12-28T13:09:00;2.80;;;2.17;;
9106;SDS011;4589;48.690;8.952;2023-12-28T13:11:25;2.67;;;1.90;;
9106;SDS011;4589;48.690;8.952;2023-12-28T13:13:52;2.60;;;2.20;;
9106;SDS011;4589;48.690;8.952;2023-12-28T13:16:17;2.63;;;2.00;;
9106;SDS011;4589;48.690;8.952;2023-12-28T13:18:43;2.40;;;1.70;;
9106;SDS011;4589;48.690;8.952;2023-12-28T13:21:09;2.63;;;1.67;;
9106;SDS011;4589;48.690;8.952;2023-12-28T13:23:34;2.50;;;2.10;;
9106;SDS011;4589;48.690;8.952;2023-12-28T13:26:00;2.00;;;1.83;;
9106;SDS011;4589;48.690;8.952;2023-12-28T13:28:25;3.60;;;2.07;;
9106;SDS011;4589;48.690;8.952;2023-12-28T13:30:51;2.17;;;1.60;;
9106;SDS011;4589;48.690;8.952;2023-12-28T13:33:20;3.20;;;1.93;;
9106;SDS011;4589;48.690;8.952;2023-12-28T13:35:46;3.20;;;1.97;;
9106;SDS011;4589;48.690;8.952;2023-12-28T13:38:12;2.03;;;1.83;;
9106;SDS011;4589;48.690;8.952;2023-12-28T13:40:37;1.57;;;1.43;;
9106;SDS011;4589;48.690;8.952;2023-12-28T13:43:03;1.80;;;1.60;;
9106;SDS011;4589;48.690;8.952;2023-12-28T13:45:28;2.13;;;1.80;;
9106;SDS011;4589;48.690;8.952;2023-12-28T13:47:54;2.20;;;2.00;;
9106;SDS011;4589;48.690;8.952;2023-12-28T13:50:20;2.50;;;2.30;;
9106;SDS011;4589;48.690;8.952;2023-12-28T13:52:45;2.80;;;2.23;;
9106;SDS011;4589;48.690;8.952;2023-12-28T13:55:11;6.33;;;2.10;;
9106;SDS011;4589;48.690;8.952;2023-12-28T13:57:37;2.40;;;2.10;;
9106;SDS011;4589;48.690;8.952;2023-12-28T14:00:03;1.77;;;1.63;;
9106;SDS011;4589;48.690;8.952;2023-12-28T14:02:30;3.83;;;2.10;;
9106;SDS011;4589;48.690;8.952;2023-12-28T14:04:56;2.57;;;2.13;;
9106;SDS011;4589;48.690;8.952;2023-12-28T14:07:22;4.73;;;2.27;;
9106;SDS011;4589;48.690;8.952;2023-12-28T14:09:48;2.60;;;1.97;;
9106;SDS011;4589;48.690;8.952;2023-12-28T14:12:14;2.90;;;2.13;;
9106;SDS011;4589;48.690;8.952;2023-12-28T14:14:39;2.37;;;1.90;;
9106;SDS011;4589;48.690;8.952;2023-12-28T14:17:05;2.60;;;2.40;;
9106;SDS011;4589;48.690;8.952;2023-12-28T14:19:31;2.73;;;2.17;;
9106;SDS011;4589;48.690;8.952;2023-12-28T14:21:57;3.17;;;2.00;;
9106;SDS011;4589;48.690;8.952;2023-12-28T14:24:23;2.70;;;2.00;;
9106;SDS011;4589;48.690;8.952;2023-12-28T14:26:50;2.70;;;2.40;;
9106;SDS011;4589;48.690;8.952;2023-12-28T14:29:19;3.40;;;2.10;;
9106;SDS011;4589;48.690;8.952;2023-12-28T14:31:45;3.10;;;2.57;;
9106;SDS011;4589;48.690;8.952;2023-12-28T14:34:12;7.23;;;2.53;;
9106;SDS011;4589;48.690;8.952;2023-12-28T14:36:38;2.30;;;2.00;;
9106;SDS011;4589;48.690;8.952;2023-12-28T14:39:04;3.10;;;2.40;;
9106;SDS011;4589;48.690;8.952;2023-12-28T14:41:31;4.23;;;2.40;;
9106;SDS011;4589;48.690;8.952;2023-12-28T14:43:58;3.53;;;2.53;;
9106;SDS011;4589;48.690;8.952;2023-12-28T14:46:24;2.87;;;2.50;;
9106;SDS011;4589;48.690;8.952;2023-12-28T14:48:50;2.30;;;2.10;;
9106;SDS011;4589;48.690;8.952;2023-12-28T14:51:16;3.10;;;2.53;;
9106;SDS011;4589;48.690;8.952;2023-12-28T14:53:41;3.70;;;2.47;;
9106;SDS011;4589;48.690;8.952;2023-12-28T14:56:07;4.33;;;2.77;;
9106;SDS011;4589;48.690;8.952;2023-12-28T14:58:33;4.33;;;3.23;;
9106;SDS011;4589;48.690;8.952;2023-12-28T15:00:59;5.73;;;2.47;;
9106;SDS011;4589;48.690;8.952;2023-12-28T15:03:24;3.90;;;3.07;;
9106;SDS011;4589;48.690;8.952;2023-12-28T15:05:51;2.97;;;2.30;;
9106;SDS011;4589;48.690;8.952;2023-12-28T15:08:17;2.50;;;2.30;;
9106;SDS011;4589;48.690;8.952;2023-12-28T15:10:42;3.40;;;3.10;;
9106;SDS011;4589;48.690;8.952;2023-12-28T15:13:09;4.43;;;2.50;;
9106;SDS011;4589;48.690;8.952;2023-12-28T15:15:35;5.13;;;3.00;;
9106;SDS011;4589;48.690;8.952;2023-12-28T15:18:01;2.97;;;2.50;;